Time;durP1;ratioP1;P1;durP2;ratioP2;P2;SDS_P1;SDS_P2;PMS_P1;PMS_P2;Temp;Humidity;BMP_temperature;BMP_pressure;BME280_temperature;BME280_humidity;BME280_pressure;Samples;Min_cycle;Max_cycle;Signal;HPM_P1;HPM_P2
2021/03/18 00:02:04;;;;;;;5.57;1.87;;;3.20;48.90;;;;;;4298794;33;20083;-39
2021/03/18 00:04:31;;;;;;;6.20;2.90;;;3.30;48.60;;;;;;4286252;33;20080;-39
2021/03/18 00:06:58;;;;;;;5.17;2.20;;;3.30;48.60;;;;;;4299230;33;20574;-39
2021/03/18 00:09:24;;;;;;;4.00;2.57;;;3.30;48.60;;;;;;4287000;33;20071;-39
2021/03/18 00:11:52;;;;;;;13.27;3.50;;;3.30;49.20;;;;;;4269949;33;20069;-39
2021/03/18 00:14:21;;;;;;;2.77;1.80;;;3.30;49.10;;;;;;4257907;33;20081;-39
2021/03/18 00:16:48;;;;;;;5.17;1.03;;;3.30;49.30;;;;;;4269759;33;20240;-40
2021/03/18 00:19:15;;;;;;;5.00;2.33;;;3.30;49.10;;;;;;4269639;33;20081;-39
2021/03/18 00:21:42;;;;;;;5.07;2.83;;;3.40;49.20;;;;;;4257517;33;20076;-39
2021/03/18 00:24:09;;;;;;;6.03;2.37;;;3.30;49.30;;;;;;4255504;33;20645;-39
2021/03/18 00:26:35;;;;;;;8.13;2.53;;;3.30;49.70;;;;;;4292396;33;20483;-39
2021/03/18 00:29:04;;;;;;;9.40;2.80;;;3.30;49.50;;;;;;4298885;33;20068;-38
2021/03/18 00:31:33;;;;;;;7.60;2.33;;;3.30;49.40;;;;;;4298650;33;20063;-40
2021/03/18 00:34:00;;;;;;;5.37;3.40;;;3.30;49.30;;;;;;4298436;33;20079;-39
2021/03/18 00:36:27;;;;;;;9.07;3.37;;;3.30;49.60;;;;;;4298533;33;20064;-40
2021/03/18 00:38:53;;;;;;;13.57;3.00;;;3.30;49.80;;;;;;4298875;33;20165;-39
2021/03/18 00:41:20;;;;;;;15.10;3.17;;;3.30;49.80;;;;;;4286588;33;20181;-39
2021/03/18 00:43:47;;;;;;;6.87;2.50;;;3.30;49.50;;;;;;4309965;33;20195;-38
2021/03/18 00:46:13;;;;;;;14.03;3.20;;;3.40;49.70;;;;;;4315330;33;20585;-39
2021/03/18 00:48:40;;;;;;;15.43;3.50;;;3.40;49.70;;;;;;4317671;33;20079;-38
2021/03/18 00:51:11;;;;;;;14.70;3.30;;;3.40;49.20;;;;;;4300487;33;20150;-36
2021/03/18 00:53:41;;;;;;;10.67;2.87;;;3.40;49.40;;;;;;4300267;33;20733;-37
2021/03/18 00:56:12;;;;;;;9.77;3.50;;;3.40;49.40;;;;;;4312507;33;20075;-38
2021/03/18 00:58:42;;;;;;;16.90;3.30;;;3.50;49.50;;;;;;4300727;33;20095;-36
2021/03/18 01:01:09;;;;;;;11.37;2.90;;;3.50;49.60;;;;;;4312700;33;20068;-37
2021/03/18 01:03:40;;;;;;;16.37;3.30;;;3.50;49.60;;;;;;4312524;33;20051;-36
2021/03/18 01:06:16;;;;;;;5.10;1.97;;;3.50;50.00;;;;;;4312679;33;20653;-39
2021/03/18 01:08:42;;;;;;;6.53;1.53;;;3.50;49.40;;;;;;4283061;33;20150;-37
2021/03/18 01:11:19;;;;;;;9.00;3.33;;;3.50;48.90;;;;;;4283442;33;20067;-38
2021/03/18 01:13:48;;;;;;;5.77;3.40;;;3.60;49.10;;;;;;4284164;33;20071;-36
2021/03/18 01:16:27;;;;;;;19.67;3.83;;;3.50;48.90;;;;;;4286000;33;20210;-37
2021/03/18 01:19:00;;;;;;;12.00;2.80;;;3.60;49.30;;;;;;4298314;33;20068;-38
2021/03/18 01:21:31;;;;;;;7.67;2.53;;;3.50;49.30;;;;;;4286591;33;20075;-37
2021/03/18 01:24:04;;;;;;;13.33;4.77;;;3.50;49.40;;;;;;4298134;33;20092;-37
2021/03/18 01:26:31;;;;;;;8.67;2.77;;;3.50;49.30;;;;;;4297534;33;20523;-36
2021/03/18 01:28:58;;;;;;;8.17;3.40;;;3.50;49.60;;;;;;4286054;33;20083;-38
2021/03/18 01:31:24;;;;;;;12.90;3.77;;;3.50;50.00;;;;;;4297984;33;20060;-38
2021/03/18 01:33:51;;;;;;;18.10;5.23;;;3.50;49.70;;;;;;4297461;33;20075;-37
2021/03/18 01:36:17;;;;;;;13.07;3.33;;;3.60;49.80;;;;;;4284991;33;20162;-36
2021/03/18 01:38:45;;;;;;;4.80;1.43;;;3.60;49.90;;;;;;4300215;33;20060;-37
2021/03/18 01:41:13;;;;;;;9.87;2.80;;;3.60;49.70;;;;;;4314606;33;20071;-38
2021/03/18 01:43:39;;;;;;;6.10;0.77;;;3.60;49.40;;;;;;4326771;33;20170;-37
2021/03/18 01:46:06;;;;;;;4.30;1.10;;;3.60;49.40;;;;;;4326750;33;20066;-37
2021/03/18 01:48:33;;;;;;;1.97;0.90;;;3.50;49.50;;;;;;4302096;33;20083;-38
2021/03/18 01:51:01;;;;;;;1.93;0.57;;;3.50;49.70;;;;;;4327087;33;20067;-37
2021/03/18 01:53:27;;;;;;;4.03;2.00;;;3.40;49.70;;;;;;4314582;33;20079;-36
2021/03/18 01:55:55;;;;;;;13.50;4.07;;;3.40;49.90;;;;;;4314763;33;20070;-38
2021/03/18 01:58:22;;;;;;;21.07;4.73;;;3.40;49.90;;;;;;4314347;33;20109;-38
2021/03/18 02:00:54;;;;;;;5.90;2.37;;;3.40;50.90;;;;;;4326423;33;20082;-38
2021/03/18 02:03:21;;;;;;;10.43;3.40;;;3.40;50.50;;;;;;4318803;33;20208;-38
2021/03/18 02:05:48;;;;;;;12.37;3.30;;;3.40;50.50;;;;;;4341421;33;20082;-37
2021/03/18 02:08:14;;;;;;;11.80;3.80;;;3.40;50.40;;;;;;4341296;33;20091;-37
2021/03/18 02:10:41;;;;;;;7.20;4.33;;;3.40;50.60;;;;;;4341224;33;20062;-37
2021/03/18 02:13:09;;;;;;;11.40;4.13;;;3.50;50.30;;;;;;4302746;33;20205;-37
2021/03/18 02:15:46;;;;;;;21.03;4.77;;;3.50;50.40;;;;;;4328393;33;20130;-37
2021/03/18 02:18:47;;;;;;;4.40;2.07;;;3.60;50.30;;;;;;4328796;33;20233;-37
2021/03/18 02:22:09;;;;;;;10.47;3.70;;;3.60;50.60;;;;;;4317582;33;20160;-37
2021/03/18 02:24:59;;;;;;;12.73;3.47;;;3.60;50.40;;;;;;4315008;33;20541;-39
2021/03/18 02:28:15;;;;;;;11.83;3.10;;;3.60;50.40;;;;;;4327210;33;20070;-37
2021/03/18 02:31:12;;;;;;;17.87;4.03;;;3.50;50.10;;;;;;4328879;33;20085;-37
2021/03/18 02:34:10;;;;;;;8.77;3.47;;;3.50;50.30;;;;;;4327251;33;20086;-37
2021/03/18 02:37:12;;;;;;;15.40;4.70;;;3.50;50.20;;;;;;4328480;33;20623;-37
2021/03/18 02:40:18;;;;;;;8.03;2.67;;;3.50;50.60;;;;;;4299610;33;20084;-37
2021/03/18 02:42:45;;;;;;;8.38;2.92;;;3.60;50.80;;;;;;4311413;33;20079;-37
2021/03/18 02:45:12;;;;;;;6.03;1.80;;;3.60;50.40;;;;;;4299450;33;20072;-37
2021/03/18 02:47:38;;;;;;;10.50;2.50;;;3.50;50.20;;;;;;4299274;33;20094;-38
2021/03/18 02:50:06;;;;;;;10.00;3.43;;;3.50;50.30;;;;;;4287047;33;20080;-38
2021/03/18 02:52:33;;;;;;;2.83;1.60;;;3.50;50.70;;;;;;4299499;33;20492;-37
2021/03/18 02:55:00;;;;;;;10.50;3.07;;;3.50;50.80;;;;;;4275281;33;20082;-37
2021/03/18 02:57:27;;;;;;;10.17;3.27;;;3.50;50.80;;;;;;4299216;33;20483;-37
2021/03/18 02:59:54;;;;;;;8.00;5.23;;;3.50;51.10;;;;;;4299246;33;20089;-39
2021/03/18 03:02:23;;;;;;;5.60;1.83;;;3.50;51.00;;;;;;4299208;33;20079;-36
2021/03/18 03:04:49;;;;;;;8.07;1.63;;;3.50;50.90;;;;;;4299081;33;20055;-37
2021/03/18 03:07:18;;;;;;;7.63;2.20;;;3.50;50.80;;;;;;4299260;33;20501;-37
2021/03/18 03:09:45;;;;;;;5.77;2.63;;;3.60;50.70;;;;;;4310933;33;20056;-37
2021/03/18 03:12:12;;;;;;;17.77;2.93;;;3.50;50.80;;;;;;4299129;33;20075;-37
2021/03/18 03:14:40;;;;;;;6.40;2.33;;;3.50;50.90;;;;;;4297055;33;20110;-38
2021/03/18 03:17:06;;;;;;;12.07;4.57;;;3.50;50.90;;;;;;4341361;33;20066;-37
2021/03/18 03:19:39;;;;;;;18.00;5.27;;;3.60;51.10;;;;;;4341827;33;20535;-37
2021/03/18 03:22:06;;;;;;;10.97;3.17;;;3.60;51.00;;;;;;4329573;33;20147;-37
2021/03/18 03:24:34;;;;;;;9.60;4.67;;;3.70;51.00;;;;;;4341754;33;20086;-37
2021/03/18 03:27:01;;;;;;;8.37;2.63;;;3.70;50.80;;;;;;4343068;32;20617;-38
2021/03/18 03:29:28;;;;;;;11.67;4.27;;;3.80;50.70;;;;;;4341464;33;20074;-37
2021/03/18 03:31:56;;;;;;;12.47;4.47;;;3.80;50.70;;;;;;4329170;33;20090;-37
2021/03/18 03:34:22;;;;;;;19.47;4.73;;;3.80;50.70;;;;;;4343052;32;20094;-38
2021/03/18 03:36:49;;;;;;;10.73;3.83;;;3.90;50.60;;;;;;4345539;32;20640;-38
2021/03/18 03:39:16;;;;;;;20.27;5.23;;;3.90;50.40;;;;;;4345787;33;20229;-38
2021/03/18 03:41:43;;;;;;;13.00;6.13;;;4.00;51.30;;;;;;4344193;33;20517;-38
2021/03/18 03:44:10;;;;;;;19.30;4.07;;;4.00;50.60;;;;;;4342771;33;20075;-38
2021/03/18 03:46:37;;;;;;;22.93;5.57;;;4.00;50.60;;;;;;4330768;33;20073;-39
2021/03/18 03:49:04;;;;;;;21.77;4.53;;;4.00;50.60;;;;;;4331201;33;20082;-39
2021/03/18 03:51:50;;;;;;;7.70;2.10;;;4.10;50.60;;;;;;4328696;33;20115;-44
2021/03/18 03:54:16;;;;;;;13.23;3.53;;;4.10;50.60;;;;;;4316160;33;20177;-38
2021/03/18 03:57:01;;;;;;;13.77;3.40;;;4.20;50.40;;;;;;4315454;33;20079;-39
2021/03/18 03:59:28;;;;;;;13.05;2.95;;;4.30;50.40;;;;;;4327749;33;20606;-38
2021/03/18 04:01:56;;;;;;;18.23;4.27;;;4.40;50.30;;;;;;4303378;33;20074;-39
2021/03/18 04:04:33;;;;;;;13.97;2.87;;;4.40;50.00;;;;;;4312510;33;20157;-40
2021/03/18 04:07:02;;;;;;;9.37;2.80;;;4.50;50.00;;;;;;4300921;33;20133;-40
2021/03/18 04:09:29;;;;;;;17.77;4.30;;;4.50;49.90;;;;;;4301028;33;20110;-39
2021/03/18 04:11:56;;;;;;;24.70;4.97;;;4.50;49.90;;;;;;4289415;33;20063;-38
2021/03/18 04:14:29;;;;;;;20.13;4.57;;;4.60;50.00;;;;;;4313425;33;20075;-40
2021/03/18 04:17:01;;;;;;;14.23;2.60;;;4.60;50.10;;;;;;4300914;33;20471;-40
2021/03/18 04:19:27;;;;;;;4.93;1.00;;;4.70;50.00;;;;;;4290059;33;20566;-40
2021/03/18 04:21:54;;;;;;;23.30;5.57;;;4.80;50.00;;;;;;4279961;33;20159;-40
2021/03/18 04:24:20;;;;;;;22.73;4.87;;;4.90;49.70;;;;;;4286582;33;20158;-41
2021/03/18 04:26:47;;;;;;;18.27;4.37;;;4.90;49.80;;;;;;4274302;33;20086;-41
2021/03/18 04:29:14;;;;;;;23.80;4.40;;;5.00;49.70;;;;;;4286238;33;20068;-40
2021/03/18 04:31:41;;;;;;;19.53;4.33;;;5.00;49.50;;;;;;4274218;33;20480;-40
2021/03/18 04:34:13;;;;;;;9.50;4.03;;;5.10;49.50;;;;;;4286575;33;20078;-39
2021/03/18 04:36:39;;;;;;;23.17;3.53;;;5.20;49.40;;;;;;4286686;33;20094;-39
2021/03/18 04:39:06;;;;;;;25.13;4.00;;;5.30;49.20;;;;;;4286191;33;20225;-39
2021/03/18 04:41:33;;;;;;;17.10;2.40;;;5.40;49.00;;;;;;4300579;33;20071;-39
2021/03/18 04:44:01;;;;;;;34.10;4.90;;;5.50;48.70;;;;;;4328537;33;20141;-39
2021/03/18 04:46:27;;;;;;;26.90;4.70;;;5.60;48.40;;;;;;4328459;33;20074;-40
2021/03/18 04:48:56;;;;;;;28.77;5.10;;;5.60;48.10;;;;;;4315992;33;20471;-39
2021/03/18 04:51:23;;;;;;;29.13;6.40;;;5.60;48.10;;;;;;4316456;33;20511;-39
2021/03/18 04:53:49;;;;;;;17.77;4.37;;;5.80;48.00;;;;;;4329302;33;20522;-39
2021/03/18 04:56:15;;;;;;;22.63;4.07;;;5.80;47.50;;;;;;4329737;33;20160;-39
2021/03/18 04:58:42;;;;;;;23.80;4.70;;;5.90;47.40;;;;;;4327702;33;20494;-39
2021/03/18 05:01:09;;;;;;;25.60;3.93;;;5.90;47.30;;;;;;4316414;33;20094;-39
2021/03/18 05:03:35;;;;;;;23.30;5.37;;;5.90;47.00;;;;;;4338908;32;20101;-40
2021/03/18 05:06:06;;;;;;;27.83;3.90;;;6.00;47.00;;;;;;4357427;32;20497;-39
2021/03/18 05:08:33;;;;;;;34.37;5.37;;;6.10;47.00;;;;;;4345755;32;20126;-39
2021/03/18 05:11:00;;;;;;;27.83;4.97;;;6.10;46.80;;;;;;4358560;32;20076;-39
2021/03/18 05:13:26;;;;;;;27.80;4.43;;;6.20;46.70;;;;;;4359223;32;20518;-39
2021/03/18 05:15:54;;;;;;;33.90;4.63;;;6.10;46.70;;;;;;4357717;32;20066;-45
2021/03/18 05:18:20;;;;;;;28.87;4.30;;;6.20;46.70;;;;;;4345413;32;20578;-40
2021/03/18 05:20:47;;;;;;;21.30;3.77;;;6.30;46.60;;;;;;4344895;32;20067;-40
2021/03/18 05:23:15;;;;;;;23.43;4.10;;;6.30;46.50;;;;;;4357437;32;20059;-40
2021/03/18 05:25:41;;;;;;;31.30;4.70;;;6.30;46.20;;;;;;4359391;32;20078;-40
2021/03/18 05:28:09;;;;;;;22.90;3.70;;;6.40;46.10;;;;;;4357246;32;20066;-41
2021/03/18 05:30:36;;;;;;;21.50;5.07;;;6.40;46.20;;;;;;4341572;33;20062;-40
2021/03/18 05:33:03;;;;;;;28.93;5.70;;;6.40;46.20;;;;;;4341687;33;20162;-41
2021/03/18 05:35:30;;;;;;;34.37;5.43;;;6.40;46.10;;;;;;4328972;33;20062;-40
2021/03/18 05:37:57;;;;;;;27.93;4.60;;;6.40;46.10;;;;;;4329290;33;20426;-41
2021/03/18 05:40:24;;;;;;;38.40;5.93;;;6.40;46.30;;;;;;4284997;33;20076;-40
2021/03/18 05:42:51;;;;;;;27.10;6.03;;;6.40;46.30;;;;;;4285676;33;20539;-40
2021/03/18 05:45:18;;;;;;;15.27;2.67;;;6.50;46.30;;;;;;4285454;33;20068;-41
2021/03/18 05:47:45;;;;;;;30.60;6.60;;;6.50;46.10;;;;;;4289049;33;20619;-41
2021/03/18 05:50:19;;;;;;;20.23;3.33;;;6.50;46.30;;;;;;4297092;33;20086;-42
2021/03/18 05:52:49;;;;;;;20.77;4.40;;;6.50;46.30;;;;;;4297184;33;20060;-41
2021/03/18 05:55:16;;;;;;;25.47;5.00;;;6.60;46.50;;;;;;4282444;33;20080;-42
2021/03/18 05:57:46;;;;;;;31.73;5.50;;;6.60;46.30;;;;;;4282724;33;20068;-41
2021/03/18 06:00:13;;;;;;;36.77;5.67;;;6.60;46.40;;;;;;4294665;33;20582;-40
2021/03/18 06:02:42;;;;;;;32.57;5.53;;;6.60;46.40;;;;;;4294962;33;20201;-41
2021/03/18 06:05:14;;;;;;;25.97;4.43;;;6.60;46.50;;;;;;4282475;33;20095;-40
2021/03/18 06:07:44;;;;;;;29.00;6.30;;;6.70;46.60;;;;;;4282618;33;20080;-40
2021/03/18 06:10:13;;;;;;;30.50;5.70;;;6.70;46.50;;;;;;4282775;33;20143;-41
2021/03/18 06:12:40;;;;;;;26.23;6.07;;;6.80;46.60;;;;;;4282732;33;20076;-41
2021/03/18 06:15:12;;;;;;;30.80;7.53;;;6.80;46.60;;;;;;4294753;33;20068;-41
2021/03/18 06:17:40;;;;;;;31.80;5.50;;;6.90;46.60;;;;;;4297124;33;20083;-41
2021/03/18 06:20:11;;;;;;;40.07;6.90;;;7.00;46.50;;;;;;4301523;33;20059;-41
2021/03/18 06:22:48;;;;;;;25.77;5.53;;;7.00;46.40;;;;;;4326153;33;20075;-41
2021/03/18 06:25:36;;;;;;;43.37;8.03;;;7.00;46.30;;;;;;4326888;33;20070;-42
2021/03/18 06:28:19;;;;;;;29.70;6.27;;;7.10;46.30;;;;;;4314504;33;20098;-40
2021/03/18 06:31:11;;;;;;;33.03;6.30;;;7.10;46.40;;;;;;4326117;33;20071;-41
2021/03/18 06:33:50;;;;;;;35.23;5.67;;;7.20;46.20;;;;;;4340853;33;20079;-41
2021/03/18 06:36:32;;;;;;;26.53;6.07;;;7.30;46.00;;;;;;4342997;32;20160;-39
2021/03/18 06:39:15;;;;;;;25.23;6.83;;;7.40;45.60;;;;;;4329502;33;20100;-39
2021/03/18 06:41:47;;;;;;;31.83;5.33;;;7.40;45.70;;;;;;4354170;32;20117;-39
2021/03/18 06:44:22;;;;;;;39.13;7.43;;;7.50;45.60;;;;;;4343663;32;20078;-38
2021/03/18 06:46:53;;;;;;;36.83;6.28;;;7.50;45.40;;;;;;4342727;32;20156;-39
2021/03/18 06:49:22;;;;;;;28.40;7.77;;;7.50;45.40;;;;;;4356550;32;20532;-39
2021/03/18 06:52:12;;;;;;;41.57;6.60;;;7.60;45.50;;;;;;4356760;32;20256;-39
2021/03/18 06:54:43;;;;;;;31.30;6.03;;;7.60;45.30;;;;;;4313802;33;20460;-40
2021/03/18 06:57:19;;;;;;;27.57;4.80;;;7.70;45.10;;;;;;4325777;33;20143;-38
2021/03/18 06:59:46;;;;;;;30.10;5.30;;;7.80;45.20;;;;;;4325973;33;20619;-39
2021/03/18 07:02:17;;;;;;;33.57;6.30;;;7.90;45.00;;;;;;4313925;33;20463;-39
2021/03/18 07:04:51;;;;;;;33.03;5.77;;;7.90;45.00;;;;;;4325981;33;20206;-40
2021/03/18 07:07:20;;;;;;;49.80;6.27;;;8.00;44.90;;;;;;4326083;33;20082;-40
2021/03/18 07:09:48;;;;;;;29.97;5.40;;;8.00;44.70;;;;;;4316056;33;20160;-38
2021/03/18 07:12:18;;;;;;;31.63;4.60;;;8.10;44.60;;;;;;4304368;33;20071;-38
2021/03/18 07:14:49;;;;;;;27.63;5.17;;;8.10;44.60;;;;;;4299138;33;20605;-38
2021/03/18 07:17:33;;;;;;;39.70;8.63;;;8.20;44.60;;;;;;4300079;33;20061;-37
2021/03/18 07:20:19;;;;;;;28.70;4.17;;;8.20;44.50;;;;;;4287360;33;20082;-39
2021/03/18 07:22:51;;;;;;;34.17;5.10;;;8.20;44.60;;;;;;4299732;33;20146;-38
2021/03/18 07:25:21;;;;;;;31.33;5.63;;;8.30;44.50;;;;;;4299911;33;20079;-38
2021/03/18 07:27:51;;;;;;;33.87;5.83;;;8.40;44.20;;;;;;4287563;33;20638;-39
2021/03/18 07:30:34;;;;;;;27.83;6.20;;;8.50;44.10;;;;;;4299545;33;20103;-39
2021/03/18 07:33:01;;;;;;;37.23;6.00;;;8.60;43.90;;;;;;4311901;33;20621;-41
2021/03/18 07:35:28;;;;;;;47.37;6.57;;;8.70;43.90;;;;;;4312531;33;20142;-38
2021/03/18 07:37:55;;;;;;;41.60;5.13;;;8.80;43.70;;;;;;4313643;33;20082;-40
2021/03/18 07:40:23;;;;;;;32.33;6.50;;;9.00;43.60;;;;;;4313516;33;20137;-39
2021/03/18 07:42:50;;;;;;;28.77;5.55;;;9.10;43.40;;;;;;4313797;33;20072;-41
2021/03/18 07:45:21;;;;;;;35.15;6.50;;;9.20;43.70;;;;;;4313591;33;20075;-41
2021/03/18 07:47:47;;;;;;;27.83;6.12;;;9.50;42.90;;;;;;4309871;33;20068;-39
2021/03/18 07:50:16;;;;;;;36.50;6.33;;;9.70;42.60;;;;;;4286435;33;20097;-41
2021/03/18 07:52:44;;;;;;;20.05;4.45;;;10.00;42.50;;;;;;4295807;33;20090;-39
2021/03/18 07:55:12;;;;;;;28.70;4.20;;;10.40;42.30;;;;;;4316092;33;20204;-40
2021/03/18 07:57:50;;;;;;;33.20;4.70;;;10.80;42.10;;;;;;4316044;33;20149;-38
2021/03/18 08:00:24;;;;;;;37.63;6.68;;;11.20;41.50;;;;;;4328605;33;20079;-38
2021/03/18 08:02:51;;;;;;;35.38;5.37;;;11.50;40.60;;;;;;4328104;33;20152;-40
2021/03/18 08:05:39;;;;;;;37.35;5.68;;;11.90;40.30;;;;;;4328457;33;20064;-39
2021/03/18 08:08:09;;;;;;;34.10;5.00;;;12.20;39.50;;;;;;4318743;33;20067;-38
2021/03/18 08:10:41;;;;;;;28.83;4.95;;;12.50;38.70;;;;;;4343540;33;20059;-40
2021/03/18 08:13:08;;;;;;;45.15;7.28;;;12.80;37.80;;;;;;4345322;32;20083;-38
2021/03/18 08:15:40;;;;;;;37.83;6.68;;;13.00;36.20;;;;;;4343683;33;20064;-39
2021/03/18 08:18:13;;;;;;;33.53;5.32;;;13.30;37.10;;;;;;4345236;33;20087;-39
2021/03/18 08:20:42;;;;;;;23.38;3.55;;;13.80;36.30;;;;;;4344423;32;20114;-38
2021/03/18 08:23:24;;;;;;;39.03;4.93;;;14.20;36.10;;;;;;4344868;33;20539;-38
2021/03/18 08:25:54;;;;;;;46.10;5.93;;;14.60;35.80;;;;;;4345058;32;20132;-40
2021/03/18 08:28:58;;;;;;;37.60;5.07;;;14.80;34.70;;;;;;4327496;33;20154;-40
2021/03/18 08:31:58;;;;;;;43.55;5.22;;;15.10;33.60;;;;;;4315411;33;20066;-40
2021/03/18 08:34:51;;;;;;;37.80;6.35;;;15.40;33.40;;;;;;4297644;33;20548;-41
2021/03/18 08:37:41;;;;;;;38.40;5.07;;;15.50;32.60;;;;;;4298256;33;20185;-40
2021/03/18 08:40:18;;;;;;;34.17;4.75;;;15.60;33.00;;;;;;4286359;33;20061;-41
2021/03/18 08:42:46;;;;;;;46.60;7.53;;;15.60;32.30;;;;;;4287250;33;20073;-41
2021/03/18 08:45:18;;;;;;;41.55;6.35;;;15.70;32.40;;;;;;4286474;33;20560;-41
2021/03/18 08:47:52;;;;;;;35.30;6.43;;;15.70;31.80;;;;;;4276642;33;20087;-42
2021/03/18 08:50:24;;;;;;;28.80;4.55;;;15.70;32.00;;;;;;4298649;33;20140;-42
2021/03/18 08:52:55;;;;;;;38.70;6.25;;;16.00;31.60;;;;;;4298689;33;20113;-42
2021/03/18 08:55:38;;;;;;;27.70;5.07;;;16.30;31.40;;;;;;4298447;33;20483;-42
2021/03/18 08:58:08;;;;;;;41.78;5.62;;;16.50;30.80;;;;;;4297862;33;20241;-43
2021/03/18 09:00:35;;;;;;;35.63;6.12;;;16.60;30.70;;;;;;4300679;33;20072;-43
2021/03/18 09:03:02;;;;;;;20.83;3.85;;;16.90;31.20;;;;;;4300246;33;20074;-43
2021/03/18 09:05:29;;;;;;;33.67;5.18;;;17.10;30.40;;;;;;4312134;33;20079;-43
2021/03/18 09:08:00;;;;;;;43.90;6.72;;;17.30;30.00;;;;;;4300259;33;20071;-42
2021/03/18 09:10:32;;;;;;;38.17;7.65;;;17.30;29.50;;;;;;4300390;33;20705;-41
2021/03/18 09:13:15;;;;;;;45.80;5.97;;;17.20;29.30;;;;;;4312493;33;20138;-43
2021/03/18 09:15:44;;;;;;;51.00;8.48;;;17.00;29.60;;;;;;4301656;33;20068;-42
2021/03/18 09:18:19;;;;;;;45.20;5.75;;;16.90;29.50;;;;;;4309360;33;20171;-43
2021/03/18 09:20:57;;;;;;;45.90;5.97;;;16.70;29.60;;;;;;4342710;33;20094;-42
2021/03/18 09:23:29;;;;;;;31.17;5.70;;;16.50;29.50;;;;;;4342990;33;20099;-43
2021/03/18 09:26:02;;;;;;;31.70;5.47;;;16.30;29.40;;;;;;4343944;32;20082;-41
2021/03/18 09:28:53;;;;;;;52.97;6.70;;;16.20;29.50;;;;;;4344162;32;20062;-41
2021/03/18 09:31:23;;;;;;;31.98;4.35;;;16.10;29.90;;;;;;4341375;32;20141;-42
2021/03/18 09:33:52;;;;;;;37.72;5.43;;;16.30;29.50;;;;;;4341133;33;20062;-41
2021/03/18 09:36:26;;;;;;;53.70;5.87;;;16.40;29.60;;;;;;4341113;33;20483;-41
2021/03/18 09:39:12;;;;;;;40.10;4.75;;;16.50;29.60;;;;;;4329366;33;20166;-40
2021/03/18 09:41:46;;;;;;;31.62;3.78;;;16.50;29.10;;;;;;4341549;33;20541;-41
2021/03/18 09:44:25;;;;;;;41.70;5.03;;;16.40;29.10;;;;;;4329416;33;20065;-42
2021/03/18 09:46:59;;;;;;;41.95;5.65;;;16.30;29.10;;;;;;4329177;33;20261;-43
2021/03/18 09:49:33;;;;;;;31.90;5.90;;;16.10;29.30;;;;;;4329583;33;20054;-43
2021/03/18 09:52:08;;;;;;;26.48;3.75;;;16.00;29.20;;;;;;4341146;33;20079;-43
2021/03/18 09:54:35;;;;;;;45.90;5.03;;;15.80;29.30;;;;;;4341283;33;20071;-41
2021/03/18 09:57:04;;;;;;;37.10;6.12;;;15.60;29.70;;;;;;4341356;33;20148;-42
2021/03/18 09:59:31;;;;;;;41.75;6.03;;;15.30;29.90;;;;;;4328806;33;20078;-42
2021/03/18 10:01:57;;;;;;;32.88;4.57;;;15.10;30.10;;;;;;4341520;33;20067;-43
2021/03/18 10:04:24;;;;;;;30.35;5.43;;;14.90;30.30;;;;;;4343559;33;20070;-41
2021/03/18 10:06:53;;;;;;;37.00;4.72;;;14.70;30.60;;;;;;4342223;33;20590;-42
2021/03/18 10:09:34;;;;;;;31.77;4.40;;;14.60;30.50;;;;;;4342237;33;20102;-40
2021/03/18 10:12:07;;;;;;;45.30;5.25;;;14.60;30.90;;;;;;4330237;33;20088;-41
2021/03/18 10:15:06;;;;;;;36.45;5.25;;;14.50;31.00;;;;;;4343614;32;20482;-40
2021/03/18 10:17:35;;;;;;;48.83;5.87;;;14.40;31.20;;;;;;4267728;33;20080;-39
2021/03/18 10:20:16;;;;;;;28.27;4.78;;;14.40;31.40;;;;;;4256219;33;20170;-41
2021/03/18 10:22:56;;;;;;;42.28;7.68;;;14.30;31.60;;;;;;4268141;33;20067;-41
2021/03/18 10:25:24;;;;;;;44.00;6.37;;;14.20;32.00;;;;;;4268148;33;20073;-42
2021/03/18 10:28:00;;;;;;;37.97;6.10;;;14.20;31.70;;;;;;4267601;33;20174;-41
2021/03/18 10:30:27;;;;;;;54.50;9.48;;;14.20;31.50;;;;;;4268348;33;20076;-42
2021/03/18 10:33:15;;;;;;;36.10;5.87;;;14.20;31.50;;;;;;4267490;33;20152;-42
2021/03/18 10:35:51;;;;;;;43.63;6.07;;;14.20;31.80;;;;;;4267988;33;20607;-42
2021/03/18 10:38:28;;;;;;;37.42;6.22;;;14.30;31.60;;;;;;4267502;33;20143;-42
2021/03/18 10:40:55;;;;;;;31.75;5.90;;;14.20;31.40;;;;;;4268297;33;20075;-41
2021/03/18 10:43:29;;;;;;;37.33;5.50;;;14.20;31.50;;;;;;4255939;33;20091;-41
2021/03/18 10:46:02;;;;;;;42.90;5.97;;;14.20;31.50;;;;;;4227493;33;20117;-41
2021/03/18 10:48:32;;;;;;;35.50;5.28;;;14.20;31.40;;;;;;4234333;33;20108;-41
2021/03/18 10:51:09;;;;;;;40.20;5.37;;;14.10;31.20;;;;;;4242349;33;20076;-41
2021/03/18 10:53:37;;;;;;;28.95;5.22;;;14.10;31.40;;;;;;4302714;33;20085;-42
2021/03/18 10:56:14;;;;;;;55.53;6.95;;;14.10;31.50;;;;;;4325733;33;20086;-42
2021/03/18 10:58:41;;;;;;;36.95;5.05;;;14.10;31.70;;;;;;4326058;33;20507;-40
2021/03/18 11:01:13;;;;;;;34.90;6.45;;;14.00;31.50;;;;;;4325932;33;20067;-41
2021/03/18 11:03:43;;;;;;;40.08;8.38;;;14.00;31.70;;;;;;4313419;33;20087;-40
2021/03/18 11:06:20;;;;;;;40.90;5.68;;;13.90;31.90;;;;;;4326191;33;20148;-42
2021/03/18 11:08:54;;;;;;;44.10;5.97;;;13.90;31.80;;;;;;4325679;33;20080;-41
2021/03/18 11:11:28;;;;;;;40.90;5.35;;;13.70;32.20;;;;;;4325773;33;20114;-41
2021/03/18 11:14:12;;;;;;;38.67;6.80;;;13.60;32.20;;;;;;4313893;33;20059;-41
2021/03/18 11:16:40;;;;;;;39.63;5.25;;;13.60;32.30;;;;;;4331904;33;20067;-42
2021/03/18 11:19:14;;;;;;;40.83;5.72;;;13.50;32.50;;;;;;4342454;32;20055;-41
2021/03/18 11:21:42;;;;;;;34.92;5.97;;;13.40;32.50;;;;;;4342380;32;20609;-41
2021/03/18 11:24:20;;;;;;;50.75;7.30;;;13.30;32.50;;;;;;4342876;33;20150;-42
2021/03/18 11:26:52;;;;;;;40.10;4.95;;;13.20;33.00;;;;;;4342624;32;20061;-44
2021/03/18 11:29:20;;;;;;;63.60;8.27;;;13.10;32.90;;;;;;4342859;32;20077;-43
2021/03/18 11:31:52;;;;;;;33.22;5.72;;;13.10;33.20;;;;;;4343067;33;20490;-40
2021/03/18 11:34:24;;;;;;;55.05;7.18;;;13.10;33.10;;;;;;4342813;32;20101;-42
2021/03/18 11:36:57;;;;;;;48.65;6.95;;;13.10;33.40;;;;;;4342833;33;20071;-40
2021/03/18 11:39:24;;;;;;;37.38;6.40;;;13.10;33.50;;;;;;4342647;32;20043;-43
2021/03/18 11:41:53;;;;;;;44.10;6.25;;;13.30;33.30;;;;;;4341482;33;20075;-43
2021/03/18 11:44:19;;;;;;;45.45;6.97;;;13.30;33.10;;;;;;4339956;33;20098;-43
2021/03/18 11:46:46;;;;;;;36.00;8.77;;;13.30;33.10;;;;;;4327955;33;20156;-44
2021/03/18 11:49:12;;;;;;;46.28;8.05;;;13.30;33.30;;;;;;4326908;33;20224;-43
2021/03/18 11:51:39;;;;;;;43.13;6.22;;;13.20;33.30;;;;;;4313068;33;20181;-43
2021/03/18 11:54:07;;;;;;;41.08;9.10;;;13.20;33.40;;;;;;4325322;33;20082;-43
2021/03/18 11:56:33;;;;;;;50.40;7.00;;;13.20;33.60;;;;;;4327030;33;20538;-43
2021/03/18 11:58:59;;;;;;;44.63;6.78;;;13.20;33.60;;;;;;4327932;33;20086;-44
2021/03/18 12:01:26;;;;;;;54.85;8.30;;;13.20;33.80;;;;;;4328176;33;20077;-43
2021/03/18 12:03:52;;;;;;;41.70;6.90;;;13.10;33.50;;;;;;4327949;33;20177;-43
2021/03/18 12:06:19;;;;;;;39.40;6.68;;;13.10;33.40;;;;;;4315721;33;20067;-42
2021/03/18 12:08:46;;;;;;;33.10;6.03;;;13.00;33.60;;;;;;4327920;33;20078;-42
2021/03/18 12:11:12;;;;;;;38.22;5.60;;;13.00;33.80;;;;;;4315774;33;20073;-43
2021/03/18 12:13:39;;;;;;;32.90;6.57;;;12.90;33.80;;;;;;4327975;33;20176;-43
2021/03/18 12:16:06;;;;;;;37.45;6.12;;;12.90;33.80;;;;;;4315623;33;20068;-41
2021/03/18 12:18:33;;;;;;;38.03;7.00;;;12.80;33.80;;;;;;4315647;33;20063;-41
2021/03/18 12:21:00;;;;;;;58.10;7.95;;;12.70;34.10;;;;;;4319116;33;20055;-41
2021/03/18 12:23:26;;;;;;;49.85;7.28;;;12.70;34.30;;;;;;4344969;32;20159;-41
2021/03/18 12:25:53;;;;;;;40.47;6.97;;;12.70;34.30;;;;;;4344664;32;20520;-41
2021/03/18 12:28:20;;;;;;;48.65;8.50;;;12.60;34.20;;;;;;4343592;33;20191;-41
2021/03/18 12:30:51;;;;;;;42.97;7.57;;;12.50;34.30;;;;;;4344606;32;20184;-41
2021/03/18 12:33:20;;;;;;;35.72;7.60;;;12.40;34.10;;;;;;4345235;32;20101;-40
2021/03/18 12:35:47;;;;;;;32.92;6.32;;;12.20;34.20;;;;;;4344922;32;20059;-40
2021/03/18 12:38:14;;;;;;;40.45;7.75;;;12.00;34.70;;;;;;4343546;33;20058;-40
2021/03/18 12:40:41;;;;;;;59.58;13.43;;;11.90;34.90;;;;;;4343098;33;20055;-40
2021/03/18 12:43:08;;;;;;;51.65;9.43;;;11.90;35.50;;;;;;4343300;33;20070;-39
2021/03/18 12:45:34;;;;;;;21.05;4.97;;;11.90;35.80;;;;;;4343368;33;20184;-40
2021/03/18 12:48:02;;;;;;;38.75;6.37;;;11.90;35.70;;;;;;4348484;32;20559;-39
2021/03/18 12:50:29;;;;;;;30.37;5.20;;;11.90;35.70;;;;;;4357701;32;20085;-40
2021/03/18 12:52:56;;;;;;;38.35;6.43;;;11.90;35.60;;;;;;4359788;32;20486;-37
2021/03/18 12:55:23;;;;;;;24.67;5.97;;;11.80;35.40;;;;;;4327041;33;20090;-37
2021/03/18 12:57:54;;;;;;;26.02;7.53;;;11.70;35.80;;;;;;4315093;33;20523;-39
2021/03/18 13:00:29;;;;;;;40.40;11.27;;;11.60;35.80;;;;;;4315217;33;20101;-39
2021/03/18 13:02:56;;;;;;;35.72;5.53;;;11.60;36.10;;;;;;4315080;33;20063;-39
2021/03/18 13:05:22;;;;;;;26.20;6.57;;;11.60;36.30;;;;;;4326807;33;20577;-39
2021/03/18 13:07:49;;;;;;;12.63;3.83;;;11.60;36.10;;;;;;4314718;33;20079;-38